Time;durP1;ratioP1;P1;durP2;ratioP2;P2;SDS_P1;SDS_P2;PMS_P1;PMS_P2;Temp;Humidity;BMP_temperature;BMP_pressure;BME280_temperature;BME280_humidity;BME280_pressure;Samples;Min_cycle;Max_cycle;Signal;HPM_P1;HPM_P2
2022/01/28 00:02:41;;;;;;;40.20;28.23;;;;;;;-3.11;66.54;95376.94;5142297;27;20223;-66
2022/01/28 00:04:53;;;;;;;38.77;27.47;;;;;;;-3.12;66.61;95372.72;5142713;27;20233;-66
2022/01/28 00:07:19;;;;;;;37.77;27.37;;;;;;;-3.23;66.58;95364.59;5139886;27;20234;-67
2022/01/28 00:09:44;;;;;;;41.33;28.00;;;;;;;-3.38;68.12;95361.69;5138890;27;20280;-68
2022/01/28 00:12:11;;;;;;;39.27;27.63;;;;;;;-3.37;67.62;95365.97;5139348;27;20302;-69
2022/01/28 00:38:46;;;;;;;39.80;27.93;;;;;;;-3.52;67.14;95352.84;5119767;27;20225;-68
2022/01/28 00:41:12;;;;;;;35.97;26.13;;;;;;;-3.56;67.38;95349.53;5121096;27;20257;-66
2022/01/28 00:43:37;;;;;;;39.63;27.63;;;;;;;-3.38;66.65;95348.00;5129718;27;20306;-67
2022/01/28 00:46:03;;;;;;;38.13;26.93;;;;;;;-3.52;67.29;95340.84;5141130;27;20226;-66
2022/01/28 00:48:29;;;;;;;41.43;27.53;;;;;;;-3.32;66.79;95345.19;5131858;27;20211;-66
2022/01/28 00:50:54;;;;;;;36.80;26.63;;;;;;;-3.48;67.33;95347.50;5127585;27;20249;-66
2022/01/28 00:53:20;;;;;;;39.50;27.67;;;;;;;-3.38;66.68;95342.88;5127075;27;20223;-66
2022/01/28 00:55:46;;;;;;;40.90;27.37;;;;;;;-3.57;66.86;95343.56;5125948;27;20227;-68
2022/01/28 00:58:11;;;;;;;34.53;24.80;;;;;;;-3.57;66.96;95337.59;5121191;27;20262;-67
2022/01/28 01:00:37;;;;;;;38.17;25.33;;;;;;;-3.49;67.19;95333.00;5124369;27;20218;-67
2022/01/28 01:03:02;;;;;;;34.47;24.30;;;;;;;-3.56;66.98;95329.81;5122356;28;20203;-65
2022/01/28 01:05:32;;;;;;;36.23;24.50;;;;;;;-3.54;66.82;95319.47;5124863;27;20230;-69
2022/01/28 01:07:59;;;;;;;33.53;23.40;;;;;;;-3.53;66.72;95321.16;5136329;27;20234;-66
2022/01/28 01:10:26;;;;;;;36.03;24.73;;;;;;;-3.44;66.33;95318.22;5140953;27;20245;-66
2022/01/28 01:12:51;;;;;;;36.23;25.27;;;;;;;-3.43;66.40;95325.03;5140326;27;20264;-66
2022/01/28 01:15:21;;;;;;;33.23;21.90;;;;;;;-3.61;66.34;95311.19;5140863;27;20203;-66
2022/01/28 01:18:07;;;;;;;34.57;23.63;;;;;;;-3.62;66.50;95311.25;5140830;27;20257;-67
2022/01/28 01:20:55;;;;;;;32.30;22.17;;;;;;;-3.68;66.34;95301.19;5141267;27;20259;-66
2022/01/28 01:23:31;;;;;;;31.93;21.23;;;;;;;-3.66;66.47;95292.53;5140063;27;20247;-66
2022/01/28 01:26:07;;;;;;;29.97;20.87;;;;;;;-3.80;66.50;95299.91;5140003;27;20228;-67
2022/01/28 01:28:36;;;;;;;31.53;20.93;;;;;;;-3.87;66.99;95293.38;5141687;27;20234;-66
2022/01/28 01:31:08;;;;;;;28.57;19.73;;;;;;;-3.73;66.61;95292.84;5139201;27;20294;-66
2022/01/28 01:33:37;;;;;;;24.03;15.60;;;;;;;-3.71;66.14;95273.06;5140467;27;20222;-68
2022/01/28 01:36:03;;;;;;;23.17;15.43;;;;;;;-3.71;65.87;95279.03;5142615;27;20255;-66
2022/01/28 01:38:33;;;;;;;23.53;16.33;;;;;;;-3.78;65.74;95277.59;5142881;27;20226;-66
2022/01/28 01:41:01;;;;;;;21.63;14.53;;;;;;;-3.80;65.60;95277.63;5138386;28;20214;-70
2022/01/28 01:43:55;;;;;;;23.83;15.70;;;;;;;-3.79;65.75;95274.19;5141064;27;20281;-67
2022/01/28 01:52:06;;;;;;;26.63;17.20;;;;;;;-3.83;66.14;95256.38;5141321;27;20202;-68
2022/01/28 01:54:41;;;;;;;22.97;16.43;;;;;;;-3.80;65.74;95267.34;5145800;27;20206;-66
2022/01/28 01:57:11;;;;;;;25.50;17.30;;;;;;;-3.97;66.12;95258.63;5122334;28;20238;-66
2022/01/28 01:59:38;;;;;;;24.60;17.03;;;;;;;-3.93;66.04;95263.59;5125443;28;20219;-69
2022/01/28 02:02:05;;;;;;;28.33;16.83;;;;;;;-4.04;66.40;95268.28;5125737;28;20222;-67
2022/01/28 02:04:31;;;;;;;23.77;17.80;;;;;;;-4.02;66.54;95269.09;5123132;28;20219;-66
2022/01/28 02:06:57;;;;;;;27.77;19.07;;;;;;;-4.12;66.36;95265.19;5128688;27;20229;-69
2022/01/28 02:09:22;;;;;;;30.93;21.17;;;;;;;-4.19;66.48;95271.47;5142187;27;20273;-70
2022/01/28 02:11:47;;;;;;;30.73;21.77;;;;;;;-4.26;67.40;95263.97;5123001;27;20226;-68
2022/01/28 02:14:13;;;;;;;36.40;23.73;;;;;;;-4.07;66.57;95247.88;5124616;27;20243;-67
2022/01/28 02:16:39;;;;;;;34.87;24.73;;;;;;;-4.11;66.02;95252.28;5121319;28;20246;-66
2022/01/28 02:19:04;;;;;;;34.03;23.60;;;;;;;-4.09;66.23;95242.81;5120726;28;20242;-66
2022/01/28 02:21:47;;;;;;;32.50;23.10;;;;;;;-4.03;66.34;95244.31;5123354;28;20213;-68
2022/01/28 02:24:15;;;;;;;30.33;21.63;;;;;;;-3.90;65.72;95239.50;5121544;28;20272;-67
2022/01/28 02:26:41;;;;;;;32.43;20.83;;;;;;;-4.04;65.66;95234.91;5133109;27;20230;-68
2022/01/28 02:29:09;;;;;;;28.57;20.93;;;;;;;-4.00;66.11;95242.44;5130932;27;20302;-66
2022/01/28 02:31:35;;;;;;;27.67;20.43;;;;;;;-3.96;66.12;95227.75;5127222;27;20242;-66
2022/01/28 02:34:00;;;;;;;33.70;21.43;;;;;;;-3.91;65.74;95220.69;5125547;28;20231;-66
2022/01/28 02:36:27;;;;;;;29.30;19.43;;;;;;;-4.01;66.05;95240.78;5123821;28;20227;-66
2022/01/28 02:38:54;;;;;;;28.47;19.13;;;;;;;-4.13;66.30;95236.09;5122657;27;20272;-66
2022/01/28 02:41:20;;;;;;;35.93;24.87;;;;;;;-4.40;66.58;95242.28;5131957;27;20291;-68
2022/01/28 02:46:32;;;;;;;33.17;23.03;;;;;;;-4.56;67.05;95226.59;5126688;27;20269;-67
2022/01/28 02:49:06;;;;;;;31.97;23.50;;;;;;;-4.34;67.40;95239.47;5121558;27;20220;-67
2022/01/28 02:51:32;;;;;;;37.23;25.17;;;;;;;-4.41;66.77;95238.88;5125011;28;20215;-67
2022/01/28 02:54:00;;;;;;;34.60;25.20;;;;;;;-4.56;67.25;95245.41;5122515;28;20211;-69
2022/01/28 02:58:57;;;;;;;36.80;25.77;;;;;;;-4.70;67.64;95230.50;5125334;27;20226;-68
2022/01/28 03:01:22;;;;;;;33.77;22.57;;;;;;;-4.58;67.69;95223.25;5122361;28;20234;-69
2022/01/28 03:03:49;;;;;;;34.10;24.13;;;;;;;-4.45;67.88;95222.75;5122860;28;20203;-66
2022/01/28 03:06:17;;;;;;;31.03;21.43;;;;;;;-4.43;67.39;95213.25;5125598;27;20226;-65
2022/01/28 03:08:51;;;;;;;30.83;21.30;;;;;;;-4.29;66.86;95220.44;5125423;27;20227;-67
2022/01/28 03:16:13;;;;;;;30.07;19.47;;;;;;;-3.79;66.38;95196.28;5126470;27;20240;-68
2022/01/28 03:21:20;;;;;;;28.20;19.13;;;;;;;-3.85;66.02;95206.75;5124578;27;20214;-66
2022/01/28 03:23:46;;;;;;;29.67;20.10;;;;;;;-3.92;66.08;95195.09;5124097;28;20226;-68
2022/01/28 03:26:13;;;;;;;27.30;17.80;;;;;;;-3.93;66.52;95190.81;5122992;27;20275;-67
2022/01/28 03:28:39;;;;;;;22.57;15.57;;;;;;;-4.00;66.63;95188.50;5119084;28;20234;-67
2022/01/28 03:31:04;;;;;;;22.50;15.57;;;;;;;-3.95;66.82;95200.34;5123403;27;20219;-68
2022/01/28 03:33:30;;;;;;;23.33;14.37;;;;;;;-4.15;67.34;95193.41;5124162;28;20239;-67
2022/01/28 03:35:55;;;;;;;21.33;15.20;;;;;;;-4.20;67.93;95193.56;5118363;27;20227;-66
2022/01/28 03:38:21;;;;;;;21.23;14.30;;;;;;;-4.09;67.21;95176.03;5127728;27;20233;-68
2022/01/28 03:40:48;;;;;;;20.60;13.27;;;;;;;-4.03;66.95;95164.69;5134658;27;20246;-69
2022/01/28 03:43:14;;;;;;;20.97;13.90;;;;;;;-4.14;67.40;95157.41;5131453;27;20233;-68
2022/01/28 03:45:39;;;;;;;20.00;13.67;;;;;;;-4.12;67.31;95185.56;5142305;27;20281;-66
2022/01/28 03:48:05;;;;;;;20.67;13.37;;;;;;;-4.13;67.61;95184.75;5143033;27;20286;-66
2022/01/28 03:50:33;;;;;;;19.37;13.20;;;;;;;-3.96;67.79;95175.53;5139665;27;20293;-66
2022/01/28 03:53:00;;;;;;;17.23;12.13;;;;;;;-3.99;67.60;95161.91;5142277;27;20222;-67
2022/01/28 03:55:26;;;;;;;21.90;13.33;;;;;;;-4.00;67.12;95154.28;5143281;27;20215;-67
2022/01/28 03:57:51;;;;;;;21.97;13.53;;;;;;;-4.01;67.21;95156.03;5141586;27;20230;-68
2022/01/28 04:00:17;;;;;;;21.93;13.67;;;;;;;-4.05;66.88;95156.19;5143263;27;20211;-69
2022/01/28 04:02:44;;;;;;;21.13;12.97;;;;;;;-4.08;67.29;95157.16;5143278;27;20207;-68
2022/01/28 04:13:31;;;;;;;21.17;13.17;;;;;;;-4.16;67.96;95137.81;5081158;28;20267;-67
2022/01/28 04:18:22;;;;;;;22.00;13.93;;;;;;;-4.16;67.06;95143.78;5081910;28;20246;-68
2022/01/28 04:20:48;;;;;;;20.00;12.90;;;;;;;-4.28;67.86;95139.94;5087220;28;20224;-69
2022/01/28 04:23:13;;;;;;;26.27;13.50;;;;;;;-4.15;68.07;95145.44;5082578;28;20228;-66
2022/01/28 04:25:39;;;;;;;23.30;13.70;;;;;;;-4.17;67.82;95161.81;5080496;28;20212;-66
2022/01/28 04:28:04;;;;;;;23.43;13.47;;;;;;;-4.21;68.24;95155.97;5082328;28;20251;-67
2022/01/28 04:30:30;;;;;;;18.33;12.93;;;;;;;-4.21;68.28;95161.94;5081753;28;20266;-67
2022/01/28 04:32:55;;;;;;;26.97;15.07;;;;;;;-4.11;68.19;95170.13;5102053;28;20302;-66
2022/01/28 04:35:21;;;;;;;23.40;13.73;;;;;;;-4.15;67.80;95178.00;5100668;28;20220;-66
2022/01/28 04:40:29;;;;;;;22.90;14.37;;;;;;;-4.21;67.85;95158.53;5100274;28;20247;-68
2022/01/28 04:45:35;;;;;;;20.43;13.57;;;;;;;-4.13;66.98;95151.34;5132453;27;20221;-68
2022/01/28 05:27:28;;;;;;;29.77;15.33;;;;;;;-4.32;67.12;95173.50;5041142;28;20382;-68
2022/01/28 05:29:53;;;;;;;23.67;15.80;;;;;;;-4.27;67.17;95171.59;5002020;28;20243;-69
2022/01/28 05:32:19;;;;;;;27.40;15.23;;;;;;;-4.17;66.76;95172.94;4999370;28;20244;-69
2022/01/28 05:34:44;;;;;;;22.47;14.60;;;;;;;-4.20;66.80;95170.47;5010552;28;20266;-70
2022/01/28 05:37:10;;;;;;;23.13;14.57;;;;;;;-4.31;67.27;95178.56;4982923;28;20227;-71
2022/01/28 05:39:36;;;;;;;22.33;14.70;;;;;;;-4.33;67.54;95177.81;4984723;28;20287;-69
2022/01/28 05:42:03;;;;;;;26.13;15.33;;;;;;;-4.38;67.52;95186.56;5020000;28;20218;-69
2022/01/28 05:44:28;;;;;;;23.13;16.00;;;;;;;-4.71;67.84;95187.75;5037111;28;20233;-69
2022/01/28 05:46:57;;;;;;;55.07;39.27;;;;;;;-4.56;67.75;95195.81;5052854;28;20232;-69
2022/01/28 05:49:23;;;;;;;77.53;67.73;;;;;;;-4.57;67.95;95202.69;5081820;28;20531;-68
2022/01/28 05:51:49;;;;;;;36.70;26.90;;;;;;;-4.64;68.22;95190.13;5086593;28;20213;-69
2022/01/28 05:54:14;;;;;;;25.13;17.87;;;;;;;-4.55;68.14;95171.81;5085289;28;20255;-69
2022/01/28 05:56:40;;;;;;;26.37;18.57;;;;;;;-4.63;67.36;95174.66;5080352;28;20301;-69
2022/01/28 05:59:05;;;;;;;26.17;17.13;;;;;;;-4.70;67.76;95186.06;5079987;28;20273;-69
2022/01/28 06:01:31;;;;;;;26.83;16.83;;;;;;;-4.60;67.76;95192.50;5081866;28;20216;-66
2022/01/28 06:03:57;;;;;;;26.40;17.10;;;;;;;-4.62;67.27;95188.31;5085129;28;20327;-68
2022/01/28 06:06:24;;;;;;;27.53;17.40;;;;;;;-4.57;67.71;95186.41;5086391;28;20219;-68
2022/01/28 06:08:54;;;;;;;29.33;18.83;;;;;;;-4.41;67.95;95189.25;5087286;28;20216;-69
2022/01/28 06:11:21;;;;;;;30.60;19.57;;;;;;;-4.50;67.73;95175.88;5088296;28;20267;-68
2022/01/28 06:13:46;;;;;;;32.93;20.20;;;;;;;-4.39;68.05;95184.91;5091079;28;20255;-68
2022/01/28 06:16:14;;;;;;;30.60;19.50;;;;;;;-4.33;67.31;95202.63;5091785;28;20212;-69
2022/01/28 06:18:40;;;;;;;26.87;19.77;;;;;;;-4.18;66.98;95201.22;5095707;28;20207;-67
2022/01/28 06:21:06;;;;;;;26.17;18.00;;;;;;;-4.10;66.46;95206.91;5080207;28;20243;-70
2022/01/28 06:23:32;;;;;;;33.67;19.37;;;;;;;-4.20;66.53;95208.97;5079186;28;20216;-68
2022/01/28 06:25:58;;;;;;;28.10;18.30;;;;;;;-4.38;66.41;95215.66;5078371;28;20223;-69
2022/01/28 06:28:24;;;;;;;29.87;18.13;;;;;;;-4.41;66.30;95214.91;5095284;27;20242;-68
2022/01/28 06:30:49;;;;;;;29.30;18.37;;;;;;;-4.50;66.32;95214.38;5123046;27;20209;-68
2022/01/28 06:33:15;;;;;;;25.07;17.10;;;;;;;-4.47;66.12;95216.81;5116510;28;20234;-67
2022/01/28 06:35:43;;;;;;;29.10;18.80;;;;;;;-4.33;66.24;95228.31;5137884;27;20218;-67
2022/01/28 06:38:09;;;;;;;31.73;20.50;;;;;;;-4.26;66.09;95220.31;5135794;27;20238;-70
2022/01/28 06:40:35;;;;;;;30.47;19.67;;;;;;;-4.29;66.81;95224.75;5132441;27;20215;-66
2022/01/28 06:43:01;;;;;;;31.93;20.57;;;;;;;-4.20;66.87;95221.81;5127678;27;20245;-67
2022/01/28 06:45:27;;;;;;;31.77;20.00;;;;;;;-4.20;67.05;95214.09;5144674;27;20221;-66
2022/01/28 06:47:53;;;;;;;32.17;20.23;;;;;;;-3.98;66.82;95214.16;5124046;28;20221;-67
2022/01/28 06:50:19;;;;;;;34.73;20.13;;;;;;;-3.80;66.19;95205.69;5122208;28;20214;-67
2022/01/28 06:52:44;;;;;;;32.37;20.43;;;;;;;-3.67;65.69;95211.19;5126835;27;20219;-68
2022/01/28 06:55:12;;;;;;;33.03;18.87;;;;;;;-3.71;65.70;95222.50;5132847;27;20331;-68
2022/01/28 06:57:38;;;;;;;32.37;20.07;;;;;;;-3.66;65.28;95218.00;5111140;27;20286;-70
2022/01/28 07:00:06;;;;;;;31.03;19.80;;;;;;;-3.45;65.43;95225.72;5124103;28;20211;-66
2022/01/28 07:02:31;;;;;;;32.67;19.53;;;;;;;-3.25;64.52;95227.50;5139389;27;20292;-66
2022/01/28 07:04:57;;;;;;;33.13;19.57;;;;;;;-3.37;64.68;95209.13;5130263;27;20227;-68
2022/01/28 07:07:24;;;;;;;33.57;18.80;;;;;;;-3.16;64.09;95222.78;5122627;28;20219;-70
2022/01/28 07:09:51;;;;;;;29.30;19.03;;;;;;;-3.06;63.95;95225.00;5122033;28;20208;-70
2022/01/28 07:12:17;;;;;;;37.03;19.90;;;;;;;-2.83;63.35;95231.72;5122934;28;20219;-69
2022/01/28 07:14:42;;;;;;;36.50;21.40;;;;;;;-2.79;63.46;95246.97;5123252;28;20355;-67
2022/01/28 07:17:08;;;;;;;31.53;19.70;;;;;;;-2.77;63.32;95242.59;5119291;28;20234;-66
2022/01/28 07:19:33;;;;;;;34.23;18.90;;;;;;;-2.73;63.38;95244.13;5121287;28;20225;-66
2022/01/28 07:21:59;;;;;;;27.03;17.00;;;;;;;-2.63;63.01;95249.72;5123399;27;20227;-66
2022/01/28 07:24:25;;;;;;;32.00;20.30;;;;;;;-2.68;63.70;95247.31;5142390;27;20210;-68
2022/01/28 07:26:51;;;;;;;32.97;20.60;;;;;;;-2.62;63.23;95250.53;5141097;27;20222;-67
2022/01/28 07:29:17;;;;;;;31.00;19.53;;;;;;;-2.56;63.54;95250.28;5140200;27;20230;-66
2022/01/28 07:31:43;;;;;;;31.80;20.00;;;;;;;-2.35;63.06;95251.94;5139649;27;20254;-65
2022/01/28 07:34:09;;;;;;;35.93;20.13;;;;;;;-2.21;62.11;95241.00;5141188;27;20233;-66
2022/01/28 07:36:35;;;;;;;29.47;19.00;;;;;;;-2.16;62.11;95246.78;5138089;27;20222;-65
2022/01/28 07:39:00;;;;;;;32.27;19.77;;;;;;;-2.18;61.61;95248.59;5136641;27;20203;-67
2022/01/28 07:41:26;;;;;;;31.90;18.40;;;;;;;-2.10;61.52;95261.94;5136017;27;20279;-69
2022/01/28 07:43:53;;;;;;;29.20;17.63;;;;;;;-2.07;61.69;95260.97;5134098;27;20226;-67
2022/01/28 07:46:19;;;;;;;31.17;18.90;;;;;;;-1.95;61.28;95260.44;5133830;27;20223;-65
2022/01/28 07:48:44;;;;;;;32.23;19.03;;;;;;;-1.85;60.88;95255.66;5136275;27;20240;-67
2022/01/28 07:51:10;;;;;;;31.73;20.53;;;;;;;-1.80;60.70;95264.84;5139230;27;20286;-66
2022/01/28 07:53:35;;;;;;;31.80;21.00;;;;;;;-1.65;60.34;95273.63;5139448;27;20298;-66
2022/01/28 07:56:01;;;;;;;33.97;21.33;;;;;;;-1.49;59.89;95270.34;5142780;27;20259;-66
2022/01/28 07:58:26;;;;;;;36.03;22.57;;;;;;;-1.48;59.93;95279.72;5143315;27;20286;-69
2022/01/28 08:00:52;;;;;;;30.00;21.27;;;;;;;-1.42;59.68;95282.84;5142182;27;20226;-65
2022/01/28 08:03:17;;;;;;;29.73;18.03;;;;;;;-1.12;59.32;95284.88;5138272;27;20198;-65
2022/01/28 08:05:43;;;;;;;29.37;18.30;;;;;;;-1.06;58.65;95271.66;5122123;27;20219;-65
2022/01/28 08:08:11;;;;;;;25.60;15.57;;;;;;;-1.00;58.01;95266.19;5125021;27;20218;-65
2022/01/28 08:10:37;;;;;;;28.03;14.73;;;;;;;-0.87;57.76;95257.84;5124467;27;20222;-66
2022/01/28 08:13:05;;;;;;;26.97;15.47;;;;;;;-0.75;57.70;95262.38;5125536;27;20275;-66
2022/01/28 08:15:31;;;;;;;25.40;15.73;;;;;;;-0.68;57.07;95256.84;5127012;27;20207;-67
2022/01/28 08:17:57;;;;;;;28.27;15.70;;;;;;;-0.81;57.22;95258.38;5140364;27;20214;-67
2022/01/28 08:20:23;;;;;;;28.70;14.80;;;;;;;-0.79;57.40;95246.22;5137517;27;20268;-67
2022/01/28 08:22:53;;;;;;;25.63;14.63;;;;;;;-0.72;57.35;95241.59;5120736;27;20227;-66
2022/01/28 08:25:21;;;;;;;24.57;14.63;;;;;;;-0.54;56.49;95240.63;5120565;27;20272;-68
2022/01/28 08:27:48;;;;;;;25.80;15.43;;;;;;;-0.43;56.41;95234.06;5129237;27;20444;-67
2022/01/28 08:30:16;;;;;;;29.77;15.37;;;;;;;-0.31;56.38;95225.69;5121518;28;20237;-66
2022/01/28 08:32:42;;;;;;;26.27;15.83;;;;;;;-0.01;54.67;95231.78;5117544;28;20246;-67
2022/01/28 08:35:09;;;;;;;22.43;14.87;;;;;;;-0.05;55.49;95227.72;5123566;27;20226;-69
2022/01/28 08:37:34;;;;;;;24.50;14.87;;;;;;;0.11;55.16;95237.25;5150122;27;20301;-69
2022/01/28 08:40:00;;;;;;;25.73;15.00;;;;;;;0.26;54.77;95222.63;5134987;27;20230;-69
2022/01/28 08:42:27;;;;;;;27.07;15.93;;;;;;;0.47;54.80;95218.03;5139873;27;20250;-68
2022/01/28 08:44:52;;;;;;;28.97;17.13;;;;;;;0.93;53.67;95225.75;5139882;27;20304;-68
2022/01/28 08:47:18;;;;;;;26.80;15.97;;;;;;;1.05;53.27;95233.66;5139858;27;20230;-66
2022/01/28 08:49:44;;;;;;;28.47;19.83;;;;;;;0.97;53.36;95225.50;5135486;27;20246;-67
2022/01/28 08:52:09;;;;;;;48.13;29.40;;;;;;;0.65;55.08;95233.34;5141032;27;20238;-67
2022/01/28 08:54:35;;;;;;;52.13;36.13;;;;;;;0.49;54.69;95247.22;5138966;27;20306;-70
2022/01/28 08:57:00;;;;;;;51.23;34.27;;;;;;;0.25;54.88;95257.19;5141598;27;20234;-67
2022/01/28 08:59:26;;;;;;;56.23;37.07;;;;;;;0.21;56.38;95265.09;5141108;27;20234;-66
2022/01/28 09:01:51;;;;;;;61.30;38.10;;;;;;;0.43;56.29;95253.59;5135709;27;20291;-64
2022/01/28 09:04:18;;;;;;;53.03;36.07;;;;;;;0.70;54.83;95248.63;5136117;27;20247;-66
2022/01/28 09:06:45;;;;;;;54.90;35.63;;;;;;;0.83;54.89;95252.19;5138752;27;20222;-66
2022/01/28 09:09:10;;;;;;;56.57;34.83;;;;;;;0.88;52.95;95249.31;5138578;27;20259;-67
2022/01/28 09:11:52;;;;;;;49.37;33.40;;;;;;;0.87;54.17;95253.66;5136159;27;20226;-69
2022/01/28 09:14:20;;;;;;;41.67;29.13;;;;;;;1.18;52.89;95243.31;5137406;27;20219;-65
2022/01/28 09:16:46;;;;;;;42.97;27.03;;;;;;;1.40;52.07;95248.88;5140464;27;20339;-66
2022/01/28 09:19:11;;;;;;;45.50;27.87;;;;;;;1.50;51.39;95251.78;5137792;27;20230;-65
2022/01/28 09:21:37;;;;;;;39.47;26.13;;;;;;;1.63;51.57;95251.88;5136370;27;20203;-65
2022/01/28 09:24:03;;;;;;;39.30;26.43;;;;;;;1.89;51.48;95253.72;5138433;27;20198;-66
2022/01/28 09:26:29;;;;;;;38.37;26.27;;;;;;;2.33;50.06;95236.34;5136172;27;20226;-67
2022/01/28 09:28:55;;;;;;;37.83;25.17;;;;;;;2.89;49.10;95250.06;5135494;27;21111;-64
2022/01/28 09:31:20;;;;;;;36.83;22.87;;;;;;;2.93;48.98;95250.69;5137455;27;20234;-66
2022/01/28 09:33:46;;;;;;;38.97;24.33;;;;;;;3.17;48.81;95246.47;5139819;27;20277;-64
2022/01/28 09:36:11;;;;;;;43.70;26.67;;;;;;;3.20;46.72;95242.84;5140585;27;20281;-67
2022/01/28 09:38:37;;;;;;;48.60;30.83;;;;;;;3.15;46.03;95250.94;5138831;27;20249;-65
2022/01/28 09:41:05;;;;;;;43.27;29.10;;;;;;;3.26;46.75;95255.44;5137298;27;20214;-67
2022/01/28 09:43:31;;;;;;;45.30;30.20;;;;;;;3.17;46.73;95250.84;5134874;28;20221;-65
2022/01/28 09:45:57;;;;;;;39.43;29.13;;;;;;;3.05;46.72;95242.94;5139109;27;20233;-66
2022/01/28 09:48:23;;;;;;;49.87;30.40;;;;;;;3.18;47.00;95250.78;5138595;28;20194;-68
2022/01/28 09:50:50;;;;;;;43.00;30.67;;;;;;;3.51;46.08;95242.47;5138151;28;20206;-67
2022/01/28 09:53:17;;;;;;;52.23;33.70;;;;;;;3.16;48.42;95237.03;5140923;27;20241;-65
2022/01/28 09:55:45;;;;;;;51.53;32.93;;;;;;;3.02;49.72;95237.09;5139542;27;20226;-66
2022/01/28 09:58:12;;;;;;;47.77;33.00;;;;;;;3.11;49.21;95238.28;5139879;27;20210;-67
2022/01/28 10:00:38;;;;;;;47.67;31.37;;;;;;;3.09;49.54;95246.16;5139416;28;20206;-67
2022/01/28 10:03:05;;;;;;;53.00;31.17;;;;;;;3.17;48.42;95246.47;5139744;28;20220;-64
2022/01/28 10:05:34;;;;;;;44.30;31.77;;;;;;;3.05;49.58;95242.13;5136552;27;20222;-65
2022/01/28 10:08:10;;;;;;;53.97;32.10;;;;;;;3.04;49.45;95249.03;5139801;27;20301;-66
2022/01/28 10:10:47;;;;;;;48.87;30.97;;;;;;;3.08;49.69;95244.50;5136521;28;20217;-68
2022/01/28 10:13:19;;;;;;;48.07;32.80;;;;;;;2.92;50.52;95249.88;5138416;27;20234;-68
2022/01/28 10:15:57;;;;;;;52.27;34.33;;;;;;;3.03;51.14;95262.97;5140700;27;20208;-66
2022/01/28 10:18:34;;;;;;;53.87;33.97;;;;;;;3.12;49.31;95255.53;5145037;27;20212;-70
2022/01/28 10:21:00;;;;;;;52.47;34.27;;;;;;;3.16;48.99;95251.81;5144982;27;20238;-66
2022/01/28 10:23:25;;;;;;;52.70;36.80;;;;;;;3.09;49.78;95252.19;5124425;27;20263;-64
2022/01/28 10:25:56;;;;;;;54.90;35.97;;;;;;;2.90;49.76;95256.09;5123413;28;20328;-65
2022/01/28 10:28:22;;;;;;;57.50;36.43;;;;;;;2.86;50.92;95255.44;5131167;27;20238;-67
2022/01/28 10:30:47;;;;;;;52.63;35.77;;;;;;;2.75;50.08;95253.53;5143325;27;20268;-66
2022/01/28 10:33:21;;;;;;;47.83;37.00;;;;;;;2.70;49.07;95254.75;5138264;27;20290;-66
2022/01/28 10:35:58;;;;;;;58.67;38.50;;;;;;;2.53;50.89;95258.44;5140185;27;20254;-68
2022/01/28 10:38:42;;;;;;;54.10;37.30;;;;;;;2.57;52.73;95265.94;5156927;27;20281;-66
2022/01/28 10:41:15;;;;;;;65.87;40.40;;;;;;;2.62;51.25;95260.47;5140567;27;20253;-67
2022/01/28 10:43:50;;;;;;;61.33;36.10;;;;;;;2.50;53.61;95253.44;5140671;27;20275;-66
2022/01/28 10:46:25;;;;;;;53.53;38.00;;;;;;;2.47;53.47;95258.84;5143171;27;20229;-66
2022/01/28 10:48:54;;;;;;;58.70;38.67;;;;;;;2.55;53.79;95260.00;5140684;27;20220;-64
2022/01/28 10:51:35;;;;;;;58.13;39.47;;;;;;;2.55;53.49;95251.41;5140887;27;20211;-64
2022/01/28 10:54:12;;;;;;;59.10;39.33;;;;;;;2.62;50.60;95261.28;5122767;28;20234;-68
2022/01/28 10:56:57;;;;;;;59.40;38.60;;;;;;;2.64;51.12;95254.22;5122188;28;20239;-64
2022/01/28 10:59:35;;;;;;;56.33;39.73;;;;;;;2.73;50.71;95252.00;5138201;27;20289;-68
2022/01/28 11:02:01;;;;;;;60.63;40.87;;;;;;;2.78;52.46;95252.50;5139067;27;20235;-67
2022/01/28 11:04:27;;;;;;;55.20;39.53;;;;;;;2.84;51.81;95254.72;5122809;28;20219;-68
2022/01/28 11:06:56;;;;;;;52.47;37.93;;;;;;;2.95;50.56;95254.03;5123397;27;20230;-68
2022/01/28 11:09:22;;;;;;;55.40;38.33;;;;;;;3.05;51.25;95248.13;5143340;27;20262;-67
2022/01/28 11:11:48;;;;;;;50.83;36.70;;;;;;;3.01;50.94;95241.47;5119843;27;20230;-68
2022/01/28 11:14:14;;;;;;;58.77;37.13;;;;;;;3.04;51.52;95246.44;5124383;27;20420;-66
2022/01/28 11:16:40;;;;;;;59.37;39.50;;;;;;;3.10;49.84;95237.41;5119310;28;20265;-70
2022/01/28 11:19:09;;;;;;;47.73;33.70;;;;;;;3.00;50.14;95228.59;5124516;28;20231;-69
2022/01/28 11:21:47;;;;;;;46.70;32.10;;;;;;;2.96;52.04;95230.53;5122732;27;20199;-69
2022/01/28 11:24:27;;;;;;;56.63;34.47;;;;;;;3.25;49.57;95228.63;5129455;27;20206;-72
2022/01/28 11:27:18;;;;;;;53.33;33.67;;;;;;;3.14;50.93;95222.47;5127290;27;20209;-73
2022/01/28 11:29:44;;;;;;;46.43;30.70;;;;;;;3.28;51.82;95219.78;5120973;28;20219;-71
2022/01/28 11:32:17;;;;;;;45.03;29.50;;;;;;;3.37;51.00;95224.38;5124535;27;20214;-69
2022/01/28 11:34:57;;;;;;;47.20;28.77;;;;;;;3.36;51.50;95227.91;5124960;27;20255;-68
2022/01/28 11:37:29;;;;;;;35.13;26.03;;;;;;;3.45;51.33;95224.69;5121794;28;20214;-69
2022/01/28 11:40:15;;;;;;;33.00;23.37;;;;;;;3.71;49.97;95227.28;5151384;27;20231;-66
2022/01/28 11:42:41;;;;;;;35.23;23.63;;;;;;;3.87;49.57;95227.06;5153230;27;20267;-71
2022/01/28 11:45:09;;;;;;;35.63;22.10;;;;;;;3.80;49.16;95221.47;5140724;27;20213;-67
2022/01/28 11:47:39;;;;;;;29.07;20.67;;;;;;;3.69;50.62;95214.41;5123524;27;20271;-68
2022/01/28 11:50:16;;;;;;;29.37;20.10;;;;;;;3.84;49.81;95215.09;5117384;27;20219;-65
2022/01/28 11:52:46;;;;;;;29.37;20.10;;;;;;;3.85;51.04;95213.31;5118653;28;20284;-66
2022/01/28 11:55:17;;;;;;;26.07;18.10;;;;;;;3.98;51.28;95211.53;5122499;27;20302;-66
2022/01/28 11:57:56;;;;;;;22.87;17.07;;;;;;;4.00;52.13;95206.22;5123171;27;20199;-65
2022/01/28 12:00:40;;;;;;;22.13;15.33;;;;;;;4.22;51.74;95206.38;5127367;27;20198;-66
2022/01/28 12:03:26;;;;;;;18.43;14.40;;;;;;;4.23;52.84;95200.25;5118510;27;20238;-70
2022/01/28 12:05:57;;;;;;;16.47;11.53;;;;;;;4.29;52.76;95201.59;5120914;27;20211;-65
2022/01/28 12:08:27;;;;;;;16.23;11.73;;;;;;;4.30;52.50;95204.06;5123804;27;20219;-65
2022/01/28 12:10:54;;;;;;;18.50;10.77;;;;;;;4.39;52.84;95193.00;5121925;27;20254;-69
2022/01/28 12:13:49;;;;;;;16.23;9.83;;;;;;;4.50;52.58;95194.00;5124618;27;20211;-66
2022/01/28 12:16:26;;;;;;;14.23;9.93;;;;;;;4.28;53.49;95190.34;5126551;27;20282;-67
2022/01/28 12:18:56;;;;;;;12.93;8.50;;;;;;;4.45;53.48;95193.50;5129680;27;20298;-66
2022/01/28 12:21:31;;;;;;;13.03;7.83;;;;;;;4.42;53.73;95197.16;5137955;27;20206;-68
2022/01/28 12:24:18;;;;;;;10.83;7.13;;;;;;;4.48;54.49;95188.91;5124761;27;20221;-66
2022/01/28 12:27:03;;;;;;;8.40;6.97;;;;;;;4.53;53.97;95192.00;5155559;27;20230;-66
2022/01/28 12:29:34;;;;;;;9.57;7.03;;;;;;;4.58;54.20;95192.50;5142134;27;20238;-66
2022/01/28 12:32:01;;;;;;;10.90;8.33;;;;;;;4.47;55.16;95179.44;5157637;27;20226;-66
2022/01/28 12:34:27;;;;;;;9.80;7.97;;;;;;;4.49;54.98;95190.59;5140419;27;20218;-64
2022/01/28 12:36:56;;;;;;;12.27;8.40;;;;;;;4.52;54.29;95179.13;5142700;27;20227;-68
2022/01/28 12:39:38;;;;;;;10.00;7.50;;;;;;;4.49;55.09;95181.91;5138679;27;20211;-65
2022/01/28 12:42:12;;;;;;;9.23;6.93;;;;;;;4.63;54.30;95189.59;5121410;27;20310;-64
2022/01/28 12:44:38;;;;;;;9.17;6.43;;;;;;;4.65;53.62;95187.69;5121515;27;20237;-65
2022/01/28 12:47:10;;;;;;;8.23;5.63;;;;;;;4.78;52.78;95188.44;5119900;28;20227;-64
2022/01/28 12:49:36;;;;;;;6.43;3.80;;;;;;;4.73;52.14;95187.97;5120852;27;20239;-68
2022/01/28 12:52:09;;;;;;;4.20;3.27;;;;;;;4.83;51.58;95178.53;5120623;28;20239;-65
2022/01/28 12:54:45;;;;;;;7.10;3.33;;;;;;;4.90;51.52;95185.91;5118587;28;20286;-67
2022/01/28 12:57:13;;;;;;;11.33;4.30;;;;;;;4.85;52.84;95192.28;5120931;27;20226;-65
2022/01/28 12:59:41;;;;;;;4.87;3.90;;;;;;;5.08;51.72;95189.75;5117900;28;20250;-65
2022/01/28 13:02:08;;;;;;;4.77;3.83;;;;;;;4.98;50.82;95194.00;5119946;28;20238;-65
2022/01/28 13:10:07;;;;;;;7.67;4.10;;;;;;;5.07;50.55;95198.50;5058623;28;20376;-69
2022/01/28 13:12:33;;;;;;;4.40;4.00;;;;;;;5.15;50.81;95198.75;5058581;28;20241;-66